createdAt,value
2019-03-31T00:02:34.274Z,99211.83
2019-03-31T00:05:05.348Z,99210.27
2019-03-31T00:07:36.095Z,99210.55
2019-03-31T00:10:07.433Z,99207.61
2019-03-31T00:12:38.203Z,99199.69
2019-03-31T00:15:09.372Z,99210.55
2019-03-31T00:17:40.163Z,99204.45
2019-03-31T00:20:11.192Z,99202.61
2019-03-31T00:22:43.913Z,99199.72
2019-03-31T00:25:14.974Z,99200.53
2019-03-31T00:27:47.353Z,99193.06
2019-03-31T00:30:18.103Z,99203.94
2019-03-31T00:32:48.864Z,99201.28
2019-03-31T00:35:19.778Z,99207.62
2019-03-31T00:37:50.616Z,99206.86
2019-03-31T00:40:21.397Z,99202.89
2019-03-31T00:42:52.196Z,99202.09
2019-03-31T00:45:23.150Z,99199.39
2019-03-31T00:47:53.941Z,99196.28
2019-03-31T00:50:24.742Z,99205.48
2019-03-31T00:52:55.513Z,99199.41
2019-03-31T00:55:26.398Z,99205.27
2019-03-31T00:57:57.192Z,99200.04
2019-03-31T01:00:47.091Z,99204.53
2019-03-31T01:03:21.667Z,99200.50
2019-03-31T01:05:52.580Z,99201.88
2019-03-31T01:08:25.031Z,99205.30
2019-03-31T01:10:57.593Z,99213.00
2019-03-31T01:13:28.670Z,99209.30
2019-03-31T01:16:00.616Z,99210.35
2019-03-31T01:18:31.468Z,99210.35
2019-03-31T01:21:02.321Z,99206.11
2019-03-31T01:23:33.186Z,99202.41
2019-03-31T01:26:04.430Z,99195.52
2019-03-31T01:28:35.423Z,99205.83
2019-03-31T01:31:06.343Z,99205.30
2019-03-31T01:33:37.584Z,99201.33
2019-03-31T01:36:09.410Z,99201.61
2019-03-31T01:38:40.258Z,99200.81
2019-03-31T01:41:12.910Z,99200.81
2019-03-31T01:43:43.661Z,99202.13
2019-03-31T01:46:16.715Z,99205.05
2019-03-31T01:48:47.677Z,99203.20
2019-03-31T01:51:18.469Z,99203.74
2019-03-31T01:53:49.242Z,99201.09
2019-03-31T01:56:21.374Z,99200.82
2019-03-31T01:58:52.220Z,99206.90
2019-03-31T02:01:23.078Z,99204.52
2019-03-31T02:03:53.931Z,99205.28
2019-03-31T02:06:24.978Z,99206.34
2019-03-31T02:08:55.742Z,99202.67
2019-03-31T02:11:26.556Z,99203.42
2019-03-31T02:13:57.401Z,99200.03
2019-03-31T02:16:28.237Z,99202.91
2019-03-31T02:18:58.993Z,99201.02
2019-03-31T02:21:29.823Z,99205.52
2019-03-31T02:24:00.627Z,99206.08
2019-03-31T02:26:31.487Z,99207.14
2019-03-31T02:29:02.520Z,99200.52
2019-03-31T02:31:33.329Z,99204.99
2019-03-31T02:34:04.083Z,99207.09
2019-03-31T02:36:34.987Z,99202.62
2019-03-31T02:39:06.400Z,99213.18
2019-03-31T02:41:37.234Z,99208.66
2019-03-31T02:44:09.043Z,99205.23
2019-03-31T02:46:39.931Z,99209.75
2019-03-31T02:49:10.683Z,99210.52
2019-03-31T02:51:41.747Z,99211.89
2019-03-31T02:54:14.271Z,99209.75
2019-03-31T02:56:46.152Z,99201.55
2019-03-31T02:59:18.547Z,99202.09
2019-03-31T03:01:50.398Z,99190.70
2019-03-31T03:04:23.164Z,99203.95
2019-03-31T03:06:57.042Z,99202.35
2019-03-31T03:09:28.874Z,99197.64
2019-03-31T03:12:01.289Z,99195.73
2019-03-31T03:14:34.816Z,99204.72
2019-03-31T03:17:05.640Z,99200.25
2019-03-31T03:19:36.433Z,99197.06
2019-03-31T03:22:07.180Z,99204.73
2019-03-31T03:24:38.013Z,99207.93
2019-03-31T03:27:08.973Z,99209.50
2019-03-31T03:29:39.859Z,99214.52
2019-03-31T03:32:10.631Z,99209.54
2019-03-31T03:34:41.463Z,99212.45
2019-03-31T03:37:12.285Z,99212.98
2019-03-31T03:39:43.063Z,99218.53
2019-03-31T03:42:14.098Z,99207.70
2019-03-31T03:44:44.888Z,99209.27
2019-03-31T03:47:15.797Z,99216.69
2019-03-31T03:49:46.586Z,99215.37
2019-03-31T03:52:17.416Z,99217.48
2019-03-31T03:54:48.143Z,99217.75
2019-03-31T03:57:19.269Z,99220.39
2019-03-31T03:59:50.054Z,99217.73
2019-03-31T04:02:20.880Z,99223.02
2019-03-31T04:04:51.628Z,99221.19
2019-03-31T04:07:22.482Z,99223.84
2019-03-31T04:09:53.293Z,99223.86
2019-03-31T04:12:24.145Z,99226.74
2019-03-31T04:14:54.919Z,99229.39
2019-03-31T04:17:25.791Z,99233.36
2019-03-31T04:19:56.572Z,99236.53
2019-03-31T04:22:27.408Z,99231.52
2019-03-31T04:24:58.162Z,99231.80
2019-03-31T04:27:29.033Z,99229.14
2019-03-31T04:30:00.611Z,99231.51
2019-03-31T04:32:31.614Z,99239.69
2019-03-31T04:35:02.422Z,99236.52
2019-03-31T04:37:33.300Z,99240.48
2019-03-31T04:40:04.368Z,99242.04
2019-03-31T04:42:35.325Z,99238.61
2019-03-31T04:45:07.561Z,99243.92
2019-03-31T04:47:38.603Z,99249.97
2019-03-31T04:50:09.588Z,99252.33
2019-03-31T04:52:40.459Z,99250.22
2019-03-31T04:55:11.194Z,99246.02
2019-03-31T04:57:42.044Z,99249.19
2019-03-31T05:00:12.902Z,99254.72
2019-03-31T05:02:43.690Z,99259.20
2019-03-31T05:05:14.577Z,99258.95
2019-03-31T05:07:45.454Z,99267.39
2019-03-31T05:10:16.224Z,99267.62
2019-03-31T05:12:47.021Z,99270.78
2019-03-31T05:15:17.781Z,99272.16
2019-03-31T05:17:48.604Z,99273.31
2019-03-31T05:20:20.482Z,99275.95
2019-03-31T05:22:52.974Z,99278.98
2019-03-31T05:25:23.912Z,99272.33
2019-03-31T05:27:54.793Z,99265.22
2019-03-31T05:30:25.937Z,99265.62
2019-03-31T05:32:56.756Z,99267.35
2019-03-31T05:35:27.544Z,99275.67
2019-03-31T05:37:58.371Z,99273.17
2019-03-31T05:40:30.833Z,99273.75
2019-03-31T05:43:01.997Z,99277.54
2019-03-31T05:45:32.754Z,99284.86
2019-03-31T05:48:04.168Z,99280.66
2019-03-31T05:50:35.033Z,99286.62
2019-03-31T05:53:05.850Z,99282.87
2019-03-31T05:55:36.743Z,99289.14
2019-03-31T05:58:07.779Z,99295.36
2019-03-31T06:00:44.089Z,99294.58
2019-03-31T06:03:14.925Z,99291.97
2019-03-31T06:05:46.810Z,99287.91
2019-03-31T06:08:18.190Z,99288.67
2019-03-31T06:10:49.091Z,99288.28
2019-03-31T06:13:20.229Z,99282.86
2019-03-31T06:15:51.026Z,99291.39
2019-03-31T06:18:21.905Z,99299.33
2019-03-31T06:20:52.761Z,99294.31
2019-03-31T06:23:23.641Z,99290.09
2019-03-31T06:25:54.398Z,99298.94
2019-03-31T06:28:25.295Z,99290.73
2019-03-31T06:30:56.924Z,99302.69
2019-03-31T06:33:27.731Z,99303.17
2019-03-31T06:35:58.711Z,99300.23
2019-03-31T06:38:29.662Z,99298.16
2019-03-31T06:41:03.945Z,99300.39
2019-03-31T06:43:34.763Z,99304.42
2019-03-31T06:46:05.633Z,99314.06
2019-03-31T06:48:36.518Z,99307.02
2019-03-31T06:51:07.424Z,99311.47
2019-03-31T06:53:38.255Z,99312.63
2019-03-31T06:56:09.144Z,99304.91
2019-03-31T06:58:39.990Z,99317.90
2019-03-31T07:01:10.893Z,99321.66
2019-03-31T07:03:41.844Z,99323.38
2019-03-31T07:06:12.705Z,99315.86
2019-03-31T07:08:43.573Z,99320.89
2019-03-31T07:11:14.503Z,99322.84
2019-03-31T07:13:46.032Z,99328.56
2019-03-31T07:16:16.860Z,99327.30
2019-03-31T07:18:47.723Z,99327.45
2019-03-31T07:21:18.614Z,99333.42
2019-03-31T07:23:49.405Z,99340.59
2019-03-31T07:26:21.335Z,99341.69
2019-03-31T07:28:53.341Z,99348.99
2019-03-31T07:31:24.854Z,99361.72
2019-03-31T07:33:55.654Z,99359.15
2019-03-31T07:36:26.495Z,99350.52
2019-03-31T07:38:57.851Z,99364.08
2019-03-31T07:41:28.861Z,99368.58
2019-03-31T07:43:59.904Z,99370.88
2019-03-31T07:46:30.781Z,99374.66
2019-03-31T07:49:01.764Z,99378.77
2019-03-31T07:51:33.572Z,99378.38
2019-03-31T07:54:04.402Z,99375.63
2019-03-31T07:56:35.271Z,99371.48
2019-03-31T07:59:06.256Z,99371.62
2019-03-31T08:01:38.174Z,99384.34
2019-03-31T08:04:09.043Z,99385.81
2019-03-31T08:07:19.927Z,99370.58
2019-03-31T08:09:50.788Z,99369.81
2019-03-31T08:12:21.673Z,99372.63
2019-03-31T08:15:16.907Z,99383.00
2019-03-31T08:17:50.597Z,99375.86
2019-03-31T08:20:23.326Z,99383.52
2019-03-31T08:22:56.990Z,99398.78
2019-03-31T08:25:26.748Z,99396.92
2019-03-31T08:27:57.561Z,99399.83
2019-03-31T08:30:29.913Z,99407.45
2019-03-31T08:33:03.284Z,99400.25
2019-03-31T08:35:47.203Z,99400.98
2019-03-31T08:38:16.210Z,99407.13
2019-03-31T08:40:47.077Z,99413.64
2019-03-31T08:43:17.908Z,99415.83
2019-03-31T08:45:49.959Z,99415.42
2019-03-31T08:48:20.778Z,99419.22
2019-03-31T08:50:52.806Z,99429.22
2019-03-31T08:53:23.706Z,99429.47
2019-03-31T08:55:54.581Z,99434.40
2019-03-31T08:58:27.375Z,99442.27
2019-03-31T09:01:11.264Z,99439.17
2019-03-31T09:03:51.972Z,99451.68
2019-03-31T09:06:22.922Z,99450.27
2019-03-31T09:09:01.447Z,99454.05
2019-03-31T09:11:37.696Z,99451.52
2019-03-31T09:14:08.606Z,99453.73
2019-03-31T09:16:39.567Z,99460.57
2019-03-31T09:19:10.454Z,99465.28
2019-03-31T09:21:41.308Z,99458.91
2019-03-31T09:24:12.569Z,99454.72
2019-03-31T09:26:43.360Z,99457.19
2019-03-31T09:29:16.559Z,99461.67
2019-03-31T09:31:47.762Z,99472.22
2019-03-31T09:34:18.911Z,99467.84
2019-03-31T09:36:49.740Z,99471.12
2019-03-31T09:39:20.531Z,99469.36
2019-03-31T09:41:51.897Z,99470.75
2019-03-31T09:44:24.224Z,99476.80
2019-03-31T09:46:55.380Z,99474.77
2019-03-31T09:49:26.203Z,99473.06
2019-03-31T09:51:57.277Z,99477.66
2019-03-31T09:54:28.218Z,99474.41
2019-03-31T09:57:03.529Z,99478.86
2019-03-31T09:59:35.500Z,99490.34
2019-03-31T10:02:06.943Z,99485.56
2019-03-31T10:04:37.907Z,99486.03
2019-03-31T10:07:08.730Z,99479.83
2019-03-31T10:09:40.286Z,99481.61
2019-03-31T10:12:12.000Z,99483.58
2019-03-31T10:14:43.007Z,99478.62
2019-03-31T10:17:13.880Z,99489.62
2019-03-31T10:19:44.800Z,99482.42
2019-03-31T10:22:15.759Z,99479.38
2019-03-31T10:24:46.823Z,99477.14
2019-03-31T10:27:18.287Z,99478.98
2019-03-31T10:29:49.125Z,99465.63
2019-03-31T10:32:20.939Z,99473.13
2019-03-31T10:34:52.113Z,99466.07
2019-03-31T10:37:22.972Z,99460.58
2019-03-31T10:39:53.841Z,99462.50
2019-03-31T10:42:25.203Z,99461.61
2019-03-31T10:44:56.090Z,99473.68
2019-03-31T10:47:27.078Z,99473.98
2019-03-31T10:49:57.891Z,99471.00
2019-03-31T10:52:28.727Z,99468.82
2019-03-31T10:54:59.644Z,99469.08
2019-03-31T10:57:30.510Z,99468.21
2019-03-31T11:00:01.401Z,99474.66
2019-03-31T11:02:32.344Z,99479.22
2019-03-31T11:05:03.249Z,99486.17
2019-03-31T11:07:36.087Z,99483.88
2019-03-31T11:10:07.270Z,99477.02
2019-03-31T11:12:38.187Z,99489.33
2019-03-31T11:15:09.263Z,99497.94
2019-03-31T11:17:40.166Z,99495.88
2019-03-31T11:20:11.086Z,99490.06
2019-03-31T11:22:53.391Z,99485.33
2019-03-31T11:25:27.627Z,99493.03
2019-03-31T11:27:58.010Z,99489.05
2019-03-31T11:30:28.865Z,99487.55
2019-03-31T11:33:00.011Z,99495.11
2019-03-31T11:35:32.059Z,99492.98
2019-03-31T11:38:03.058Z,99497.27
2019-03-31T11:40:36.282Z,99489.03
2019-03-31T11:43:07.561Z,99490.66
2019-03-31T11:45:40.045Z,99494.58
2019-03-31T11:48:11.055Z,99494.70
2019-03-31T11:50:43.453Z,99505.81
2019-03-31T11:53:14.496Z,99508.50
2019-03-31T11:55:46.383Z,99513.65
2019-03-31T11:58:17.309Z,99509.89
2019-03-31T12:00:53.524Z,99513.94
2019-03-31T12:03:24.582Z,99520.21
2019-03-31T12:05:56.354Z,99521.67
2019-03-31T12:08:27.367Z,99512.34
2019-03-31T12:10:58.218Z,99515.86
2019-03-31T12:13:29.089Z,99511.01
2019-03-31T12:15:59.991Z,99514.84
2019-03-31T12:18:30.942Z,99516.45
2019-03-31T12:21:01.870Z,99505.30
2019-03-31T12:23:32.724Z,99505.17
2019-03-31T12:26:03.548Z,99511.84
2019-03-31T12:28:35.165Z,99520.54
2019-03-31T12:31:07.091Z,99513.18
2019-03-31T12:33:37.923Z,99509.88
2019-03-31T12:36:09.415Z,99516.33
2019-03-31T12:38:40.293Z,99506.22
2019-03-31T12:41:12.733Z,99489.08
2019-03-31T12:43:43.667Z,99499.54
2019-03-31T12:46:14.578Z,99503.13
2019-03-31T12:48:46.961Z,99494.75
2019-03-31T12:51:17.816Z,99505.53
2019-03-31T12:53:51.199Z,99502.52
2019-03-31T12:56:22.299Z,99499.27
2019-03-31T12:58:53.138Z,99490.75
2019-03-31T13:01:24.085Z,99493.08
2019-03-31T13:03:55.004Z,99495.58
2019-03-31T13:06:26.913Z,99493.77
2019-03-31T13:08:57.770Z,99497.28
2019-03-31T13:11:28.606Z,99494.98
2019-03-31T13:13:59.488Z,99493.09
2019-03-31T13:16:30.287Z,99500.05
2019-03-31T13:19:01.362Z,99502.91
2019-03-31T13:21:32.151Z,99492.70
2019-03-31T13:24:03.058Z,99496.64
2019-03-31T13:26:33.975Z,99502.23
2019-03-31T13:29:05.110Z,99504.17
2019-03-31T13:31:35.909Z,99499.27
2019-03-31T13:34:09.112Z,99493.75
2019-03-31T13:36:40.691Z,99496.48
2019-03-31T13:39:12.570Z,99487.07
2019-03-31T13:41:45.664Z,99494.48
2019-03-31T13:44:16.082Z,99490.63
2019-03-31T13:46:46.837Z,99490.53
2019-03-31T13:49:17.878Z,99488.55
2019-03-31T13:51:48.690Z,99495.30
2019-03-31T13:54:19.559Z,99496.14
2019-03-31T13:56:50.771Z,99500.05
2019-03-31T13:59:22.458Z,99499.16
2019-03-31T14:01:53.652Z,99491.02
2019-03-31T14:04:24.537Z,99501.11
2019-03-31T14:06:55.333Z,99494.00
2019-03-31T14:09:26.167Z,99501.16
2019-03-31T14:11:57.612Z,99496.44
2019-03-31T14:14:28.550Z,99500.60
2019-03-31T14:16:59.443Z,99506.26
2019-03-31T14:19:31.239Z,99501.36
2019-03-31T14:22:02.118Z,99493.40
2019-03-31T14:24:33.216Z,99496.02
2019-03-31T14:27:04.135Z,99488.50
2019-03-31T14:29:35.091Z,99491.94
2019-03-31T14:32:05.882Z,99501.06
2019-03-31T14:34:39.319Z,99493.67
2019-03-31T14:37:10.430Z,99496.17
2019-03-31T14:39:41.375Z,99499.69
2019-03-31T14:42:12.570Z,99500.98
2019-03-31T14:44:43.406Z,99496.95
2019-03-31T14:47:14.191Z,99500.05
2019-03-31T14:49:45.184Z,99496.28
2019-03-31T14:52:26.707Z,99502.86
2019-03-31T14:54:48.647Z,99507.66
2019-03-31T14:57:19.456Z,99503.27
2019-03-31T14:59:52.562Z,99507.04
2019-03-31T15:02:23.429Z,99502.95
2019-03-31T15:04:54.429Z,99506.66
2019-03-31T15:07:25.344Z,99500.03
2019-03-31T15:09:56.416Z,99507.34
2019-03-31T15:12:27.511Z,99503.11
2019-03-31T15:14:58.805Z,99512.89
2019-03-31T15:17:34.396Z,99509.37
2019-03-31T15:20:07.105Z,99510.84
2019-03-31T15:22:37.868Z,99512.16
2019-03-31T15:25:19.578Z,99513.56
2019-03-31T15:27:54.540Z,99511.73
2019-03-31T15:30:25.429Z,99513.17
2019-03-31T15:32:56.254Z,99511.23
2019-03-31T15:35:27.545Z,99508.48
2019-03-31T15:38:00.232Z,99512.83
2019-03-31T15:40:31.035Z,99512.58
2019-03-31T15:43:01.853Z,99509.83
2019-03-31T15:45:32.780Z,99519.32
2019-03-31T15:48:04.673Z,99512.83
2019-03-31T15:50:35.534Z,99514.50
2019-03-31T15:53:06.314Z,99516.16
2019-03-31T15:55:37.637Z,99513.48
2019-03-31T15:58:08.861Z,99520.00
2019-03-31T16:00:39.704Z,99521.11
2019-03-31T16:03:10.428Z,99529.25
2019-03-31T16:05:41.673Z,99526.26
2019-03-31T16:08:12.038Z,99520.56
2019-03-31T16:10:42.353Z,99527.17
2019-03-31T16:13:12.569Z,99524.81
2019-03-31T16:15:43.738Z,99533.89
2019-03-31T16:18:14.085Z,99531.95
2019-03-31T16:20:44.381Z,99530.16
2019-03-31T16:23:14.646Z,99536.13
2019-03-31T16:25:49.050Z,99532.84
2019-03-31T16:28:19.663Z,99543.42
2019-03-31T16:30:49.872Z,99543.58
2019-03-31T16:33:20.138Z,99540.86
2019-03-31T16:35:50.396Z,99540.42
2019-03-31T16:38:21.187Z,99541.88
2019-03-31T16:40:52.053Z,99532.89
2019-03-31T16:43:22.270Z,99535.34
2019-03-31T16:45:52.517Z,99542.14
2019-03-31T16:48:22.791Z,99541.84
2019-03-31T16:50:54.987Z,99541.73
2019-03-31T16:53:25.201Z,99543.00
2019-03-31T16:55:55.413Z,99548.11
2019-03-31T16:58:25.778Z,99550.13
2019-03-31T17:00:56.073Z,99546.38
2019-03-31T17:03:26.356Z,99548.96
2019-03-31T17:05:56.619Z,99555.03
2019-03-31T17:08:26.831Z,99561.35
2019-03-31T17:10:57.067Z,99554.64
2019-03-31T17:13:27.389Z,99563.94
2019-03-31T17:15:57.626Z,99563.19
2019-03-31T17:18:27.878Z,99555.34
2019-03-31T17:20:58.100Z,99559.13
2019-03-31T17:23:28.417Z,99560.39
2019-03-31T17:25:58.625Z,99565.40
2019-03-31T17:28:28.818Z,99567.33
2019-03-31T17:30:59.052Z,99567.14
2019-03-31T17:33:30.377Z,99572.03
2019-03-31T17:36:00.927Z,99569.98
2019-03-31T17:38:31.463Z,99573.20
2019-03-31T17:41:01.719Z,99574.94
2019-03-31T17:43:32.137Z,99572.30
2019-03-31T17:46:02.480Z,99577.89
2019-03-31T17:48:32.690Z,99573.65
2019-03-31T17:51:02.949Z,99579.66
2019-03-31T17:53:33.152Z,99583.60
2019-03-31T17:56:03.421Z,99582.09
2019-03-31T17:58:33.676Z,99585.61
2019-03-31T18:01:03.854Z,99591.10
2019-03-31T18:03:34.123Z,99594.86
2019-03-31T18:06:04.380Z,99601.72
2019-03-31T18:08:34.588Z,99601.73
2019-03-31T18:11:04.957Z,99606.31
2019-03-31T18:13:35.260Z,99612.36
2019-03-31T18:16:05.436Z,99610.37
2019-03-31T18:18:35.752Z,99622.14
2019-03-31T18:21:06.118Z,99624.78
2019-03-31T18:23:36.300Z,99630.98
2019-03-31T18:26:07.483Z,99621.58
2019-03-31T18:28:37.743Z,99627.82
2019-03-31T18:31:11.213Z,99633.05
2019-03-31T18:33:41.460Z,99631.20
2019-03-31T18:36:11.708Z,99639.70
2019-03-31T18:38:42.118Z,99642.33
2019-03-31T18:41:12.657Z,99645.42
2019-03-31T18:43:51.387Z,99646.53
2019-03-31T18:46:14.891Z,99650.78
2019-03-31T18:48:45.210Z,99653.92
2019-03-31T18:51:15.457Z,99655.82
2019-03-31T18:54:07.528Z,99649.02
2019-03-31T18:56:59.771Z,99664.45
2019-03-31T19:00:01.102Z,99664.23
2019-03-31T19:03:05.749Z,99666.66
2019-03-31T19:05:57.994Z,99663.94
2019-03-31T19:08:41.423Z,99667.17
2019-03-31T19:11:29.683Z,99667.19
2019-03-31T19:14:17.979Z,99665.36
2019-03-31T19:16:57.973Z,99670.73
2019-03-31T19:19:59.994Z,99663.79
2019-03-31T19:22:40.479Z,99664.02
2019-03-31T19:25:39.515Z,99667.63
2019-03-31T19:28:40.503Z,99669.72
2019-03-31T19:31:32.514Z,99674.79
2019-03-31T19:34:20.479Z,99675.88
2019-03-31T19:37:05.055Z,99678.55
2019-03-31T19:39:58.588Z,99683.69
2019-03-31T19:42:56.823Z,99680.91
2019-03-31T19:45:49.430Z,99681.70
2019-03-31T19:48:44.509Z,99678.02
2019-03-31T19:51:36.491Z,99678.02
2019-03-31T19:54:32.732Z,99679.08
2019-03-31T19:57:37.218Z,99686.24
2019-03-31T20:00:26.690Z,99684.39
2019-03-31T20:03:21.733Z,99682.50
2019-03-31T20:06:04.310Z,99682.00
2019-03-31T20:08:53.625Z,99683.05
2019-03-31T20:11:32.697Z,99683.36
2019-03-31T20:14:12.381Z,99682.22
2019-03-31T20:16:59.568Z,99688.92
2019-03-31T20:19:57.873Z,99685.73
2019-03-31T20:22:35.599Z,99688.92
2019-03-31T20:25:42.991Z,99690.18
2019-03-31T20:28:31.026Z,99682.80
2019-03-31T20:31:20.356Z,99683.64
2019-03-31T20:34:08.328Z,99688.33
2019-03-31T20:36:49.933Z,99687.34
2019-03-31T20:39:57.551Z,99696.48
2019-03-31T20:42:49.979Z,99691.52
2019-03-31T20:45:20.263Z,99693.44
2019-03-31T20:47:50.484Z,99703.09
2019-03-31T20:50:20.838Z,99694.78
2019-03-31T20:52:51.035Z,99701.41
2019-03-31T20:55:21.381Z,99700.94
2019-03-31T20:57:52.656Z,99705.31
2019-03-31T21:00:22.906Z,99701.31
2019-03-31T21:02:53.568Z,99704.13
2019-03-31T21:05:23.819Z,99719.08
2019-03-31T21:07:54.061Z,99718.00
2019-03-31T21:10:24.258Z,99718.24
2019-03-31T21:12:54.450Z,99717.33
2019-03-31T21:15:24.824Z,99728.42
2019-03-31T21:17:56.115Z,99736.27
2019-03-31T21:20:26.356Z,99733.03
2019-03-31T21:22:56.569Z,99737.44
2019-03-31T21:25:26.784Z,99732.72
2019-03-31T21:27:57.083Z,99730.27
2019-03-31T21:30:27.344Z,99744.52
2019-03-31T21:32:57.605Z,99739.77
2019-03-31T21:35:29.191Z,99741.77
2019-03-31T21:37:59.411Z,99749.27
2019-03-31T21:40:31.113Z,99744.15
2019-03-31T21:43:03.160Z,99749.13
2019-03-31T21:45:33.447Z,99748.08
2019-03-31T21:48:03.706Z,99746.56
2019-03-31T21:50:33.933Z,99746.53
2019-03-31T21:53:04.118Z,99754.18
2019-03-31T21:55:34.377Z,99754.41
2019-03-31T21:58:04.603Z,99753.66
2019-03-31T22:00:50.898Z,99761.53
2019-03-31T22:03:22.694Z,99767.22
2019-03-31T22:05:52.948Z,99757.80
2019-03-31T22:08:23.207Z,99759.89
2019-03-31T22:10:53.793Z,99762.50
2019-03-31T22:13:24.008Z,99770.38
2019-03-31T22:15:54.249Z,99770.34
2019-03-31T22:18:24.624Z,99764.89
2019-03-31T22:20:54.813Z,99771.18
2019-03-31T22:23:25.015Z,99773.08
2019-03-31T22:25:55.285Z,99767.53
2019-03-31T22:28:25.703Z,99780.52
2019-03-31T22:30:55.951Z,99779.09
2019-03-31T22:33:26.223Z,99783.61
2019-03-31T22:36:14.381Z,99781.97
2019-03-31T22:38:44.643Z,99784.35
2019-03-31T22:41:14.823Z,99783.69
2019-03-31T22:43:46.264Z,99781.13
2019-03-31T22:46:16.667Z,99784.20
2019-03-31T22:48:47.013Z,99780.69
2019-03-31T22:51:17.229Z,99778.48
2019-03-31T22:53:47.440Z,99784.05
2019-03-31T22:56:17.675Z,99782.73
2019-03-31T22:58:47.918Z,99783.58
2019-03-31T23:01:18.293Z,99779.84
2019-03-31T23:03:48.499Z,99786.91
2019-03-31T23:06:18.677Z,99786.91
2019-03-31T23:08:48.870Z,99788.92
2019-03-31T23:11:19.090Z,99793.06
2019-03-31T23:13:49.280Z,99793.97
2019-03-31T23:16:20.733Z,99796.00
2019-03-31T23:18:50.931Z,99793.03
2019-03-31T23:21:21.178Z,99793.58
2019-03-31T23:23:51.380Z,99793.58
2019-03-31T23:26:21.548Z,99796.48
2019-03-31T23:28:51.737Z,99800.41
2019-03-31T23:31:21.961Z,99802.02
2019-03-31T23:33:52.206Z,99800.41
2019-03-31T23:36:22.413Z,99797.88
2019-03-31T23:38:52.649Z,99804.17
2019-03-31T23:41:23.927Z,99800.94
2019-03-31T23:43:54.710Z,99804.03
2019-03-31T23:46:24.907Z,99803.33
2019-03-31T23:48:55.104Z,99790.56
2019-03-31T23:51:25.272Z,99797.66
2019-03-31T23:53:55.527Z,99791.43
2019-03-31T23:56:25.711Z,99791.11
2019-03-31T23:58:56.455Z,99794.92
